sensor_id;sensor_type;location;lat;lon;timestamp;P1;durP1;ratioP1;P2;durP2;ratioP2
21301;SDS011;10810;48.270;9.996;2022-10-31T00:01:18;7.00;;;2.60;;
21301;SDS011;10810;48.270;9.996;2022-10-31T00:03:47;3.97;;;2.53;;
21301;SDS011;10810;48.270;9.996;2022-10-31T00:06:17;4.40;;;2.37;;
21301;SDS011;10810;48.270;9.996;2022-10-31T00:08:45;6.80;;;2.70;;
21301;SDS011;10810;48.270;9.996;2022-10-31T00:11:12;8.07;;;3.00;;
21301;SDS011;10810;48.270;9.996;2022-10-31T00:13:43;8.20;;;2.50;;
21301;SDS011;10810;48.270;9.996;2022-10-31T00:18:57;5.93;;;2.70;;
21301;SDS011;10810;48.270;9.996;2022-10-31T00:21:28;5.27;;;2.53;;
21301;SDS011;10810;48.270;9.996;2022-10-31T00:23:57;5.73;;;2.70;;
21301;SDS011;10810;48.270;9.996;2022-10-31T00:26:26;4.57;;;2.20;;
21301;SDS011;10810;48.270;9.996;2022-10-31T00:28:54;4.57;;;2.37;;
21301;SDS011;10810;48.270;9.996;2022-10-31T00:31:21;5.20;;;2.47;;
21301;SDS011;10810;48.270;9.996;2022-10-31T00:33:49;6.00;;;2.67;;
21301;SDS011;10810;48.270;9.996;2022-10-31T00:36:17;6.83;;;2.63;;
21301;SDS011;10810;48.270;9.996;2022-10-31T00:38:47;5.33;;;2.57;;
21301;SDS011;10810;48.270;9.996;2022-10-31T00:41:15;4.80;;;2.33;;
21301;SDS011;10810;48.270;9.996;2022-10-31T00:43:44;4.27;;;2.53;;
21301;SDS011;10810;48.270;9.996;2022-10-31T00:46:12;6.30;;;2.30;;
21301;SDS011;10810;48.270;9.996;2022-10-31T00:48:39;4.47;;;2.50;;
21301;SDS011;10810;48.270;9.996;2022-10-31T00:51:07;5.03;;;2.30;;
21301;SDS011;10810;48.270;9.996;2022-10-31T00:53:35;3.63;;;2.40;;
21301;SDS011;10810;48.270;9.996;2022-10-31T00:56:05;4.97;;;2.23;;
21301;SDS011;10810;48.270;9.996;2022-10-31T00:58:42;5.93;;;2.87;;
21301;SDS011;10810;48.270;9.996;2022-10-31T01:01:11;4.17;;;2.27;;
21301;SDS011;10810;48.270;9.996;2022-10-31T01:03:39;5.53;;;2.70;;
21301;SDS011;10810;48.270;9.996;2022-10-31T01:06:07;6.20;;;2.70;;
21301;SDS011;10810;48.270;9.996;2022-10-31T01:08:39;7.37;;;2.70;;
21301;SDS011;10810;48.270;9.996;2022-10-31T01:11:12;4.87;;;2.70;;
21301;SDS011;10810;48.270;9.996;2022-10-31T01:13:41;5.00;;;2.60;;
21301;SDS011;10810;48.270;9.996;2022-10-31T01:16:09;4.83;;;2.60;;
21301;SDS011;10810;48.270;9.996;2022-10-31T01:18:38;5.93;;;2.60;;
21301;SDS011;10810;48.270;9.996;2022-10-31T01:21:06;6.43;;;2.80;;
21301;SDS011;10810;48.270;9.996;2022-10-31T01:23:35;10.23;;;3.17;;
21301;SDS011;10810;48.270;9.996;2022-10-31T01:26:04;5.53;;;2.77;;
21301;SDS011;10810;48.270;9.996;2022-10-31T01:28:35;5.60;;;2.63;;
21301;SDS011;10810;48.270;9.996;2022-10-31T01:31:05;5.47;;;2.50;;
21301;SDS011;10810;48.270;9.996;2022-10-31T01:33:33;6.30;;;2.77;;
21301;SDS011;10810;48.270;9.996;2022-10-31T01:36:10;5.37;;;2.63;;
21301;SDS011;10810;48.270;9.996;2022-10-31T01:38:44;6.63;;;2.93;;
21301;SDS011;10810;48.270;9.996;2022-10-31T01:41:13;7.40;;;2.77;;
21301;SDS011;10810;48.270;9.996;2022-10-31T01:43:47;6.60;;;2.70;;
21301;SDS011;10810;48.270;9.996;2022-10-31T01:46:17;5.50;;;3.03;;
21301;SDS011;10810;48.270;9.996;2022-10-31T01:48:48;5.20;;;2.77;;
21301;SDS011;10810;48.270;9.996;2022-10-31T01:51:17;6.80;;;2.70;;
21301;SDS011;10810;48.270;9.996;2022-10-31T01:53:47;5.83;;;2.90;;
21301;SDS011;10810;48.270;9.996;2022-10-31T01:56:17;8.27;;;3.33;;
21301;SDS011;10810;48.270;9.996;2022-10-31T01:58:46;5.37;;;2.83;;
21301;SDS011;10810;48.270;9.996;2022-10-31T02:01:14;8.93;;;3.00;;
21301;SDS011;10810;48.270;9.996;2022-10-31T02:03:43;8.80;;;3.07;;
21301;SDS011;10810;48.270;9.996;2022-10-31T02:06:15;7.23;;;3.07;;
21301;SDS011;10810;48.270;9.996;2022-10-31T02:08:48;6.30;;;2.73;;
21301;SDS011;10810;48.270;9.996;2022-10-31T02:11:15;4.20;;;2.60;;
21301;SDS011;10810;48.270;9.996;2022-10-31T02:13:43;8.93;;;2.50;;
21301;SDS011;10810;48.270;9.996;2022-10-31T02:16:13;6.10;;;2.97;;
21301;SDS011;10810;48.270;9.996;2022-10-31T02:18:40;7.07;;;2.80;;
21301;SDS011;10810;48.270;9.996;2022-10-31T02:21:11;4.90;;;2.70;;
21301;SDS011;10810;48.270;9.996;2022-10-31T02:23:57;8.53;;;2.90;;
21301;SDS011;10810;48.270;9.996;2022-10-31T02:32:24;8.33;;;2.67;;
21301;SDS011;10810;48.270;9.996;2022-10-31T02:34:57;5.70;;;2.80;;
21301;SDS011;10810;48.270;9.996;2022-10-31T02:37:34;6.27;;;2.93;;
21301;SDS011;10810;48.270;9.996;2022-10-31T02:40:10;7.03;;;2.80;;
21301;SDS011;10810;48.270;9.996;2022-10-31T02:42:44;4.93;;;2.70;;
21301;SDS011;10810;48.270;9.996;2022-10-31T02:45:19;4.73;;;2.77;;
21301;SDS011;10810;48.270;9.996;2022-10-31T02:47:53;5.17;;;2.70;;
21301;SDS011;10810;48.270;9.996;2022-10-31T02:50:25;4.37;;;2.53;;
21301;SDS011;10810;48.270;9.996;2022-10-31T02:52:56;4.70;;;2.27;;
21301;SDS011;10810;48.270;9.996;2022-10-31T02:55:56;5.90;;;2.60;;
21301;SDS011;10810;48.270;9.996;2022-10-31T02:58:26;8.17;;;2.97;;
21301;SDS011;10810;48.270;9.996;2022-10-31T03:01:05;4.90;;;2.80;;
21301;SDS011;10810;48.270;9.996;2022-10-31T03:07:01;4.97;;;2.50;;
21301;SDS011;10810;48.270;9.996;2022-10-31T03:09:38;6.50;;;2.43;;
21301;SDS011;10810;48.270;9.996;2022-10-31T03:12:14;6.17;;;2.50;;
21301;SDS011;10810;48.270;9.996;2022-10-31T03:14:47;5.07;;;2.80;;
21301;SDS011;10810;48.270;9.996;2022-10-31T03:17:20;6.33;;;2.90;;
21301;SDS011;10810;48.270;9.996;2022-10-31T03:19:52;5.43;;;2.67;;
21301;SDS011;10810;48.270;9.996;2022-10-31T03:22:23;4.40;;;2.47;;
21301;SDS011;10810;48.270;9.996;2022-10-31T03:24:52;5.93;;;2.80;;
21301;SDS011;10810;48.270;9.996;2022-10-31T03:27:27;5.87;;;2.73;;
21301;SDS011;10810;48.270;9.996;2022-10-31T03:30:03;6.07;;;2.93;;
21301;SDS011;10810;48.270;9.996;2022-10-31T03:32:34;6.80;;;3.00;;
21301;SDS011;10810;48.270;9.996;2022-10-31T03:35:08;7.23;;;2.63;;
21301;SDS011;10810;48.270;9.996;2022-10-31T03:37:39;6.50;;;2.80;;
21301;SDS011;10810;48.270;9.996;2022-10-31T03:40:09;6.83;;;2.90;;
21301;SDS011;10810;48.270;9.996;2022-10-31T03:42:40;5.90;;;2.77;;
21301;SDS011;10810;48.270;9.996;2022-10-31T03:45:12;6.60;;;2.60;;
21301;SDS011;10810;48.270;9.996;2022-10-31T03:47:41;6.87;;;3.20;;
21301;SDS011;10810;48.270;9.996;2022-10-31T03:50:13;5.73;;;3.20;;
21301;SDS011;10810;48.270;9.996;2022-10-31T03:52:42;6.43;;;3.10;;
21301;SDS011;10810;48.270;9.996;2022-10-31T03:55:16;6.93;;;2.47;;
21301;SDS011;10810;48.270;9.996;2022-10-31T03:57:46;6.13;;;2.83;;
21301;SDS011;10810;48.270;9.996;2022-10-31T04:00:20;7.47;;;3.10;;
21301;SDS011;10810;48.270;9.996;2022-10-31T04:02:51;5.43;;;3.07;;
21301;SDS011;10810;48.270;9.996;2022-10-31T04:05:26;7.83;;;2.57;;
21301;SDS011;10810;48.270;9.996;2022-10-31T04:07:55;6.93;;;2.77;;
21301;SDS011;10810;48.270;9.996;2022-10-31T04:10:25;5.70;;;2.90;;
21301;SDS011;10810;48.270;9.996;2022-10-31T04:13:01;4.90;;;2.67;;
21301;SDS011;10810;48.270;9.996;2022-10-31T04:15:32;6.07;;;2.47;;
21301;SDS011;10810;48.270;9.996;2022-10-31T04:18:05;4.53;;;2.40;;
21301;SDS011;10810;48.270;9.996;2022-10-31T04:20:42;5.33;;;2.50;;
21301;SDS011;10810;48.270;9.996;2022-10-31T04:23:12;5.60;;;2.60;;
21301;SDS011;10810;48.270;9.996;2022-10-31T04:25:59;5.50;;;2.60;;
21301;SDS011;10810;48.270;9.996;2022-10-31T04:28:30;7.57;;;3.20;;
21301;SDS011;10810;48.270;9.996;2022-10-31T04:30:59;6.23;;;2.83;;
21301;SDS011;10810;48.270;9.996;2022-10-31T04:33:26;6.60;;;3.07;;
21301;SDS011;10810;48.270;9.996;2022-10-31T04:35:55;9.73;;;3.13;;
21301;SDS011;10810;48.270;9.996;2022-10-31T04:38:23;6.60;;;2.70;;
21301;SDS011;10810;48.270;9.996;2022-10-31T04:40:50;6.33;;;2.90;;
21301;SDS011;10810;48.270;9.996;2022-10-31T04:43:18;5.97;;;2.90;;
21301;SDS011;10810;48.270;9.996;2022-10-31T04:45:46;7.37;;;2.50;;
21301;SDS011;10810;48.270;9.996;2022-10-31T04:48:14;8.30;;;3.20;;
21301;SDS011;10810;48.270;9.996;2022-10-31T04:50:41;5.80;;;2.70;;
21301;SDS011;10810;48.270;9.996;2022-10-31T04:53:12;7.07;;;2.97;;
21301;SDS011;10810;48.270;9.996;2022-10-31T04:55:39;7.63;;;3.00;;
21301;SDS011;10810;48.270;9.996;2022-10-31T04:58:07;8.40;;;3.50;;
21301;SDS011;10810;48.270;9.996;2022-10-31T05:00:35;5.27;;;2.70;;
21301;SDS011;10810;48.270;9.996;2022-10-31T05:03:03;7.20;;;3.40;;
21301;SDS011;10810;48.270;9.996;2022-10-31T05:05:31;6.33;;;3.20;;
21301;SDS011;10810;48.270;9.996;2022-10-31T05:07:59;6.30;;;3.00;;
21301;SDS011;10810;48.270;9.996;2022-10-31T05:10:29;6.93;;;3.00;;
21301;SDS011;10810;48.270;9.996;2022-10-31T05:12:57;6.27;;;2.90;;
21301;SDS011;10810;48.270;9.996;2022-10-31T05:15:27;4.60;;;2.70;;
21301;SDS011;10810;48.270;9.996;2022-10-31T05:17:54;5.27;;;2.90;;
21301;SDS011;10810;48.270;9.996;2022-10-31T05:20:25;5.97;;;3.10;;
21301;SDS011;10810;48.270;9.996;2022-10-31T05:22:58;4.60;;;2.30;;
21301;SDS011;10810;48.270;9.996;2022-10-31T05:25:28;5.73;;;2.93;;
21301;SDS011;10810;48.270;9.996;2022-10-31T05:27:59;10.07;;;3.10;;
21301;SDS011;10810;48.270;9.996;2022-10-31T05:30:27;5.97;;;3.00;;
21301;SDS011;10810;48.270;9.996;2022-10-31T05:32:59;6.87;;;2.70;;
21301;SDS011;10810;48.270;9.996;2022-10-31T05:35:28;6.40;;;3.17;;
21301;SDS011;10810;48.270;9.996;2022-10-31T05:37:57;6.30;;;2.73;;
21301;SDS011;10810;48.270;9.996;2022-10-31T05:40:32;9.33;;;3.00;;
21301;SDS011;10810;48.270;9.996;2022-10-31T05:43:02;6.13;;;2.93;;
21301;SDS011;10810;48.270;9.996;2022-10-31T05:45:31;7.83;;;3.37;;
21301;SDS011;10810;48.270;9.996;2022-10-31T05:48:00;11.40;;;3.27;;
21301;SDS011;10810;48.270;9.996;2022-10-31T05:50:28;8.47;;;3.07;;
21301;SDS011;10810;48.270;9.996;2022-10-31T05:52:58;9.90;;;3.87;;
21301;SDS011;10810;48.270;9.996;2022-10-31T05:55:33;9.20;;;3.60;;
21301;SDS011;10810;48.270;9.996;2022-10-31T05:58:02;7.20;;;3.63;;
21301;SDS011;10810;48.270;9.996;2022-10-31T06:00:33;8.33;;;3.70;;
21301;SDS011;10810;48.270;9.996;2022-10-31T06:03:04;8.83;;;3.53;;
21301;SDS011;10810;48.270;9.996;2022-10-31T06:05:35;8.73;;;3.50;;
21301;SDS011;10810;48.270;9.996;2022-10-31T06:08:05;7.10;;;3.50;;
21301;SDS011;10810;48.270;9.996;2022-10-31T06:10:34;7.87;;;3.80;;
21301;SDS011;10810;48.270;9.996;2022-10-31T06:13:05;7.60;;;3.43;;
21301;SDS011;10810;48.270;9.996;2022-10-31T06:15:34;7.90;;;3.90;;
21301;SDS011;10810;48.270;9.996;2022-10-31T06:18:02;8.37;;;3.90;;
21301;SDS011;10810;48.270;9.996;2022-10-31T06:20:37;9.00;;;4.10;;
21301;SDS011;10810;48.270;9.996;2022-10-31T06:23:04;9.87;;;4.03;;
21301;SDS011;10810;48.270;9.996;2022-10-31T06:25:36;8.93;;;4.17;;
21301;SDS011;10810;48.270;9.996;2022-10-31T06:28:04;9.83;;;3.93;;
21301;SDS011;10810;48.270;9.996;2022-10-31T06:30:34;7.70;;;4.03;;
21301;SDS011;10810;48.270;9.996;2022-10-31T06:33:07;9.40;;;4.00;;
21301;SDS011;10810;48.270;9.996;2022-10-31T06:35:38;11.50;;;4.30;;
21301;SDS011;10810;48.270;9.996;2022-10-31T06:38:13;11.07;;;4.07;;
21301;SDS011;10810;48.270;9.996;2022-10-31T06:40:47;12.00;;;4.47;;
21301;SDS011;10810;48.270;9.996;2022-10-31T06:43:14;9.77;;;4.63;;
21301;SDS011;10810;48.270;9.996;2022-10-31T06:45:43;8.93;;;4.47;;
21301;SDS011;10810;48.270;9.996;2022-10-31T06:48:12;9.07;;;4.13;;
21301;SDS011;10810;48.270;9.996;2022-10-31T06:50:44;11.03;;;4.37;;
21301;SDS011;10810;48.270;9.996;2022-10-31T06:53:13;11.93;;;4.17;;
21301;SDS011;10810;48.270;9.996;2022-10-31T06:55:57;10.03;;;4.53;;
21301;SDS011;10810;48.270;9.996;2022-10-31T06:58:27;10.10;;;4.27;;
21301;SDS011;10810;48.270;9.996;2022-10-31T07:00:54;9.53;;;3.93;;
21301;SDS011;10810;48.270;9.996;2022-10-31T07:03:25;8.73;;;4.20;;
21301;SDS011;10810;48.270;9.996;2022-10-31T07:05:54;9.47;;;4.07;;
21301;SDS011;10810;48.270;9.996;2022-10-31T07:08:22;9.77;;;3.83;;
21301;SDS011;10810;48.270;9.996;2022-10-31T07:10:53;9.13;;;4.03;;
21301;SDS011;10810;48.270;9.996;2022-10-31T07:13:24;10.57;;;4.80;;
21301;SDS011;10810;48.270;9.996;2022-10-31T07:15:52;12.67;;;4.70;;
21301;SDS011;10810;48.270;9.996;2022-10-31T07:18:43;11.43;;;5.30;;
21301;SDS011;10810;48.270;9.996;2022-10-31T07:21:21;14.23;;;5.43;;
21301;SDS011;10810;48.270;9.996;2022-10-31T07:24:39;13.60;;;4.80;;
21301;SDS011;10810;48.270;9.996;2022-10-31T07:29:55;12.53;;;5.13;;
21301;SDS011;10810;48.270;9.996;2022-10-31T07:30:55;12.33;;;4.70;;
21301;SDS011;10810;48.270;9.996;2022-10-31T07:43:48;10.93;;;4.97;;
21301;SDS011;10810;48.270;9.996;2022-10-31T07:46:17;9.67;;;5.00;;
21301;SDS011;10810;48.270;9.996;2022-10-31T07:48:44;10.60;;;5.07;;
21301;SDS011;10810;48.270;9.996;2022-10-31T07:51:11;11.63;;;5.23;;
21301;SDS011;10810;48.270;9.996;2022-10-31T07:53:38;12.27;;;5.53;;
21301;SDS011;10810;48.270;9.996;2022-10-31T07:56:06;10.83;;;5.03;;
21301;SDS011;10810;48.270;9.996;2022-10-31T07:58:33;12.67;;;5.87;;
21301;SDS011;10810;48.270;9.996;2022-10-31T08:01:00;8.53;;;4.97;;
21301;SDS011;10810;48.270;9.996;2022-10-31T08:03:28;10.40;;;4.93;;
21301;SDS011;10810;48.270;9.996;2022-10-31T08:05:56;11.93;;;5.13;;
21301;SDS011;10810;48.270;9.996;2022-10-31T08:08:23;14.93;;;5.43;;
21301;SDS011;10810;48.270;9.996;2022-10-31T08:10:53;10.40;;;4.87;;
21301;SDS011;10810;48.270;9.996;2022-10-31T08:13:20;9.50;;;4.60;;
21301;SDS011;10810;48.270;9.996;2022-10-31T08:15:50;10.70;;;4.70;;
21301;SDS011;10810;48.270;9.996;2022-10-31T08:18:18;12.83;;;5.00;;
21301;SDS011;10810;48.270;9.996;2022-10-31T08:20:49;9.07;;;4.60;;
21301;SDS011;10810;48.270;9.996;2022-10-31T08:23:21;10.00;;;4.83;;
21301;SDS011;10810;48.270;9.996;2022-10-31T08:25:51;10.00;;;4.50;;
21301;SDS011;10810;48.270;9.996;2022-10-31T08:28:29;9.50;;;4.50;;
21301;SDS011;10810;48.270;9.996;2022-10-31T08:31:16;9.37;;;4.67;;
21301;SDS011;10810;48.270;9.996;2022-10-31T08:34:12;8.97;;;4.47;;
21301;SDS011;10810;48.270;9.996;2022-10-31T08:39:25;9.83;;;4.30;;
21301;SDS011;10810;48.270;9.996;2022-10-31T08:41:57;9.03;;;4.23;;
21301;SDS011;10810;48.270;9.996;2022-10-31T08:46:05;10.27;;;4.30;;
21301;SDS011;10810;48.270;9.996;2022-10-31T08:47:48;10.17;;;4.40;;
21301;SDS011;10810;48.270;9.996;2022-10-31T08:50:39;7.25;;;3.80;;
21301;SDS011;10810;48.270;9.996;2022-10-31T08:53:10;7.97;;;4.00;;
21301;SDS011;10810;48.270;9.996;2022-10-31T08:57:21;9.43;;;4.47;;
21301;SDS011;10810;48.270;9.996;2022-10-31T08:58:52;9.70;;;4.50;;
21301;SDS011;10810;48.270;9.996;2022-10-31T09:01:33;7.77;;;4.07;;
21301;SDS011;10810;48.270;9.996;2022-10-31T09:04:16;10.73;;;4.43;;
21301;SDS011;10810;48.270;9.996;2022-10-31T09:06:46;12.87;;;4.43;;
21301;SDS011;10810;48.270;9.996;2022-10-31T09:12:14;8.30;;;4.27;;
21301;SDS011;10810;48.270;9.996;2022-10-31T09:14:47;11.37;;;4.60;;
21301;SDS011;10810;48.270;9.996;2022-10-31T09:17:15;11.63;;;4.63;;
21301;SDS011;10810;48.270;9.996;2022-10-31T09:19:51;11.33;;;4.83;;
21301;SDS011;10810;48.270;9.996;2022-10-31T09:23:00;11.30;;;5.17;;
21301;SDS011;10810;48.270;9.996;2022-10-31T09:28:38;15.30;;;5.27;;
21301;SDS011;10810;48.270;9.996;2022-10-31T09:31:22;13.07;;;5.87;;
21301;SDS011;10810;48.270;9.996;2022-10-31T09:34:20;14.80;;;5.73;;
21301;SDS011;10810;48.270;9.996;2022-10-31T09:36:42;12.33;;;5.80;;
21301;SDS011;10810;48.270;9.996;2022-10-31T09:39:16;12.67;;;5.80;;
21301;SDS011;10810;48.270;9.996;2022-10-31T09:41:52;16.37;;;5.97;;
21301;SDS011;10810;48.270;9.996;2022-10-31T09:44:33;14.57;;;6.27;;
21301;SDS011;10810;48.270;9.996;2022-10-31T09:47:27;18.73;;;6.73;;
21301;SDS011;10810;48.270;9.996;2022-10-31T09:50:15;14.97;;;6.53;;
21301;SDS011;10810;48.270;9.996;2022-10-31T09:52:47;17.70;;;6.83;;
21301;SDS011;10810;48.270;9.996;2022-10-31T09:55:30;17.40;;;6.93;;
21301;SDS011;10810;48.270;9.996;2022-10-31T09:58:22;16.17;;;6.60;;
21301;SDS011;10810;48.270;9.996;2022-10-31T10:00:51;15.40;;;6.43;;
21301;SDS011;10810;48.270;9.996;2022-10-31T10:03:27;17.50;;;6.43;;
21301;SDS011;10810;48.270;9.996;2022-10-31T10:06:18;15.50;;;6.43;;
21301;SDS011;10810;48.270;9.996;2022-10-31T10:08:49;16.70;;;7.40;;
21301;SDS011;10810;48.270;9.996;2022-10-31T10:11:35;15.93;;;7.13;;
21301;SDS011;10810;48.270;9.996;2022-10-31T10:17:18;14.17;;;6.20;;
21301;SDS011;10810;48.270;9.996;2022-10-31T10:20:07;15.27;;;5.93;;
21301;SDS011;10810;48.270;9.996;2022-10-31T10:23:11;15.60;;;6.20;;
21301;SDS011;10810;48.270;9.996;2022-10-31T10:25:52;14.67;;;6.17;;
21301;SDS011;10810;48.270;9.996;2022-10-31T10:29:08;17.17;;;6.07;;
21301;SDS011;10810;48.270;9.996;2022-10-31T10:31:20;15.03;;;5.90;;
21301;SDS011;10810;48.270;9.996;2022-10-31T10:33:58;13.47;;;5.90;;
21301;SDS011;10810;48.270;9.996;2022-10-31T10:36:36;13.87;;;5.90;;
21301;SDS011;10810;48.270;9.996;2022-10-31T10:39:14;13.83;;;5.87;;
21301;SDS011;10810;48.270;9.996;2022-10-31T10:41:46;12.10;;;5.70;;
21301;SDS011;10810;48.270;9.996;2022-10-31T10:44:30;15.60;;;6.40;;
21301;SDS011;10810;48.270;9.996;2022-10-31T10:47:16;11.97;;;5.63;;
21301;SDS011;10810;48.270;9.996;2022-10-31T10:50:02;16.80;;;6.60;;
21301;SDS011;10810;48.270;9.996;2022-10-31T10:52:39;13.33;;;5.67;;
21301;SDS011;10810;48.270;9.996;2022-10-31T10:55:14;12.43;;;5.37;;
21301;SDS011;10810;48.270;9.996;2022-10-31T10:57:48;12.77;;;5.60;;
21301;SDS011;10810;48.270;9.996;2022-10-31T11:00:22;15.00;;;5.73;;
21301;SDS011;10810;48.270;9.996;2022-10-31T11:02:55;14.07;;;5.60;;
21301;SDS011;10810;48.270;9.996;2022-10-31T11:05:40;11.53;;;5.07;;
21301;SDS011;10810;48.270;9.996;2022-10-31T11:08:11;13.30;;;5.57;;
21301;SDS011;10810;48.270;9.996;2022-10-31T11:11:07;13.20;;;5.53;;
21301;SDS011;10810;48.270;9.996;2022-10-31T11:14:04;13.87;;;5.80;;
21301;SDS011;10810;48.270;9.996;2022-10-31T11:16:46;12.43;;;5.67;;
21301;SDS011;10810;48.270;9.996;2022-10-31T11:19:37;12.37;;;5.33;;
21301;SDS011;10810;48.270;9.996;2022-10-31T11:22:08;10.37;;;4.87;;
21301;SDS011;10810;48.270;9.996;2022-10-31T11:25:20;13.73;;;6.43;;
21301;SDS011;10810;48.270;9.996;2022-10-31T11:29:22;11.93;;;5.63;;
21301;SDS011;10810;48.270;9.996;2022-10-31T11:30:37;12.63;;;5.23;;
21301;SDS011;10810;48.270;9.996;2022-10-31T11:33:49;11.50;;;5.43;;
21301;SDS011;10810;48.270;9.996;2022-10-31T11:36:34;16.17;;;5.73;;
21301;SDS011;10810;48.270;9.996;2022-10-31T11:39:05;14.43;;;6.13;;
21301;SDS011;10810;48.270;9.996;2022-10-31T11:41:49;14.33;;;5.97;;
21301;SDS011;10810;48.270;9.996;2022-10-31T11:44:18;13.27;;;5.33;;
21301;SDS011;10810;48.270;9.996;2022-10-31T11:46:48;13.50;;;5.60;;
21301;SDS011;10810;48.270;9.996;2022-10-31T11:49:18;13.80;;;5.67;;
21301;SDS011;10810;48.270;9.996;2022-10-31T11:51:58;12.67;;;5.93;;
21301;SDS011;10810;48.270;9.996;2022-10-31T11:54:42;16.17;;;5.87;;
21301;SDS011;10810;48.270;9.996;2022-10-31T11:57:21;14.17;;;6.00;;
21301;SDS011;10810;48.270;9.996;2022-10-31T12:00:21;15.00;;;5.33;;
21301;SDS011;10810;48.270;9.996;2022-10-31T12:03:03;15.17;;;5.60;;
21301;SDS011;10810;48.270;9.996;2022-10-31T12:05:38;14.17;;;6.00;;
21301;SDS011;10810;48.270;9.996;2022-10-31T12:10:56;13.67;;;5.90;;
21301;SDS011;10810;48.270;9.996;2022-10-31T12:13:31;15.53;;;6.60;;
21301;SDS011;10810;48.270;9.996;2022-10-31T12:16:04;16.43;;;6.67;;
21301;SDS011;10810;48.270;9.996;2022-10-31T12:18:47;15.37;;;6.40;;
21301;SDS011;10810;48.270;9.996;2022-10-31T12:21:27;13.87;;;5.67;;
21301;SDS011;10810;48.270;9.996;2022-10-31T12:24:07;13.37;;;5.80;;
21301;SDS011;10810;48.270;9.996;2022-10-31T12:26:49;18.13;;;5.90;;
21301;SDS011;10810;48.270;9.996;2022-10-31T12:29:36;13.33;;;5.70;;
21301;SDS011;10810;48.270;9.996;2022-10-31T12:32:20;13.17;;;5.20;;
21301;SDS011;10810;48.270;9.996;2022-10-31T12:35:05;11.57;;;5.60;;
21301;SDS011;10810;48.270;9.996;2022-10-31T12:37:55;14.17;;;5.67;;
21301;SDS011;10810;48.270;9.996;2022-10-31T12:40:47;11.03;;;5.30;;
21301;SDS011;10810;48.270;9.996;2022-10-31T12:43:29;18.67;;;5.93;;
21301;SDS011;10810;48.270;9.996;2022-10-31T12:46:03;13.70;;;6.00;;
21301;SDS011;10810;48.270;9.996;2022-10-31T12:51:40;14.90;;;5.80;;
21301;SDS011;10810;48.270;9.996;2022-10-31T12:54:19;11.70;;;5.27;;
21301;SDS011;10810;48.270;9.996;2022-10-31T12:57:02;13.20;;;5.13;;
21301;SDS011;10810;48.270;9.996;2022-10-31T13:00:03;12.27;;;4.87;;
21301;SDS011;10810;48.270;9.996;2022-10-31T13:02:38;12.33;;;5.43;;
21301;SDS011;10810;48.270;9.996;2022-10-31T13:05:22;17.92;;;6.97;;
21301;SDS011;10810;48.270;9.996;2022-10-31T13:08:46;18.87;;;7.33;;
21301;SDS011;10810;48.270;9.996;2022-10-31T13:11:11;18.83;;;7.13;;
21301;SDS011;10810;48.270;9.996;2022-10-31T13:13:49;16.73;;;6.70;;
21301;SDS011;10810;48.270;9.996;2022-10-31T13:16:28;16.77;;;7.17;;
21301;SDS011;10810;48.270;9.996;2022-10-31T13:19:02;17.87;;;7.30;;
21301;SDS011;10810;48.270;9.996;2022-10-31T13:21:55;17.43;;;7.90;;
21301;SDS011;10810;48.270;9.996;2022-10-31T13:24:44;17.13;;;7.13;;
21301;SDS011;10810;48.270;9.996;2022-10-31T13:27:22;18.50;;;7.75;;
21301;SDS011;10810;48.270;9.996;2022-10-31T13:29:58;17.00;;;6.60;;
21301;SDS011;10810;48.270;9.996;2022-10-31T13:32:59;15.30;;;6.63;;
21301;SDS011;10810;48.270;9.996;2022-10-31T13:35:54;12.97;;;5.67;;
21301;SDS011;10810;48.270;9.996;2022-10-31T13:38:33;11.60;;;5.33;;
21301;SDS011;10810;48.270;9.996;2022-10-31T14:04:28;11.70;;;5.27;;
21301;SDS011;10810;48.270;9.996;2022-10-31T14:07:26;14.90;;;5.70;;
21301;SDS011;10810;48.270;9.996;2022-10-31T14:09:59;13.00;;;5.60;;
21301;SDS011;10810;48.270;9.996;2022-10-31T14:12:34;12.87;;;5.30;;
21301;SDS011;10810;48.270;9.996;2022-10-31T14:15:13;11.67;;;5.87;;
21301;SDS011;10810;48.270;9.996;2022-10-31T14:17:47;11.83;;;5.40;;
21301;SDS011;10810;48.270;9.996;2022-10-31T14:20:31;10.90;;;5.00;;
21301;SDS011;10810;48.270;9.996;2022-10-31T14:23:33;12.63;;;5.20;;
21301;SDS011;10810;48.270;9.996;2022-10-31T14:26:16;11.70;;;5.83;;
21301;SDS011;10810;48.270;9.996;2022-10-31T14:29:00;11.70;;;5.47;;
21301;SDS011;10810;48.270;9.996;2022-10-31T14:31:36;14.73;;;5.90;;
21301;SDS011;10810;48.270;9.996;2022-10-31T14:34:25;13.57;;;5.60;;
21301;SDS011;10810;48.270;9.996;2022-10-31T14:40:02;12.07;;;5.40;;
21301;SDS011;10810;48.270;9.996;2022-10-31T14:43:00;10.63;;;4.87;;
21301;SDS011;10810;48.270;9.996;2022-10-31T14:45:43;14.80;;;5.97;;
21301;SDS011;10810;48.270;9.996;2022-10-31T14:48:24;12.83;;;5.73;;
21301;SDS011;10810;48.270;9.996;2022-10-31T14:51:22;12.87;;;5.53;;
21301;SDS011;10810;48.270;9.996;2022-10-31T14:53:58;12.93;;;6.07;;
21301;SDS011;10810;48.270;9.996;2022-10-31T14:56:53;11.03;;;5.00;;
21301;SDS011;10810;48.270;9.996;2022-10-31T14:59:28;10.80;;;5.13;;
21301;SDS011;10810;48.270;9.996;2022-10-31T15:02:13;13.53;;;5.33;;
21301;SDS011;10810;48.270;9.996;2022-10-31T15:04:55;13.37;;;5.40;;
21301;SDS011;10810;48.270;9.996;2022-10-31T15:07:35;14.47;;;5.90;;
21301;SDS011;10810;48.270;9.996;2022-10-31T15:10:21;11.00;;;5.70;;
21301;SDS011;10810;48.270;9.996;2022-10-31T15:12:54;11.83;;;5.53;;
21301;SDS011;10810;48.270;9.996;2022-10-31T15:15:39;12.70;;;5.70;;
21301;SDS011;10810;48.270;9.996;2022-10-31T15:18:30;11.47;;;5.50;;
21301;SDS011;10810;48.270;9.996;2022-10-31T15:21:13;10.07;;;4.80;;
21301;SDS011;10810;48.270;9.996;2022-10-31T15:23:45;12.53;;;5.60;;
21301;SDS011;10810;48.270;9.996;2022-10-31T15:26:15;12.20;;;5.27;;
21301;SDS011;10810;48.270;9.996;2022-10-31T15:28:56;11.73;;;5.07;;
21301;SDS011;10810;48.270;9.996;2022-10-31T15:33:39;11.50;;;5.07;;
21301;SDS011;10810;48.270;9.996;2022-10-31T15:35:23;12.23;;;5.03;;
21301;SDS011;10810;48.270;9.996;2022-10-31T15:38:01;12.87;;;6.00;;
21301;SDS011;10810;48.270;9.996;2022-10-31T15:40:56;15.10;;;6.00;;
21301;SDS011;10810;48.270;9.996;2022-10-31T15:43:36;14.57;;;6.57;;
21301;SDS011;10810;48.270;9.996;2022-10-31T15:46:30;17.10;;;6.70;;
21301;SDS011;10810;48.270;9.996;2022-10-31T15:49:29;17.03;;;7.50;;
21301;SDS011;10810;48.270;9.996;2022-10-31T15:58:54;16.57;;;6.87;;
21301;SDS011;10810;48.270;9.996;2022-10-31T16:02:00;18.47;;;7.27;;
21301;SDS011;10810;48.270;9.996;2022-10-31T16:08:53;17.63;;;7.20;;
21301;SDS011;10810;48.270;9.996;2022-10-31T16:14:31;14.87;;;6.70;;
21301;SDS011;10810;48.270;9.996;2022-10-31T16:17:58;14.20;;;6.50;;
21301;SDS011;10810;48.270;9.996;2022-10-31T16:20:25;15.23;;;7.27;;
21301;SDS011;10810;48.270;9.996;2022-10-31T16:23:35;15.90;;;6.03;;
21301;SDS011;10810;48.270;9.996;2022-10-31T16:26:35;14.73;;;6.33;;
21301;SDS011;10810;48.270;9.996;2022-10-31T16:29:35;14.67;;;6.30;;
21301;SDS011;10810;48.270;9.996;2022-10-31T16:38:31;17.17;;;7.30;;
21301;SDS011;10810;48.270;9.996;2022-10-31T16:41:39;18.47;;;7.33;;
21301;SDS011;10810;48.270;9.996;2022-10-31T16:44:56;18.83;;;6.73;;
21301;SDS011;10810;48.270;9.996;2022-10-31T16:47:46;19.43;;;6.77;;
21301;SDS011;10810;48.270;9.996;2022-10-31T16:50:44;18.73;;;7.37;;
21301;SDS011;10810;48.270;9.996;2022-10-31T16:53:16;16.67;;;6.17;;
21301;SDS011;10810;48.270;9.996;2022-10-31T16:59:11;15.17;;;5.73;;
21301;SDS011;10810;48.270;9.996;2022-10-31T17:01:55;13.20;;;5.90;;
21301;SDS011;10810;48.270;9.996;2022-10-31T17:08:27;16.30;;;6.90;;
21301;SDS011;10810;48.270;9.996;2022-10-31T17:24:32;14.40;;;7.10;;
21301;SDS011;10810;48.270;9.996;2022-10-31T17:32:44;15.33;;;6.73;;